Time;durP1;ratioP1;P1;durP2;ratioP2;P2;SDS_P1;SDS_P2;PMS_P1;PMS_P2;Temp;Humidity;BMP_temperature;BMP_pressure;BME280_temperature;BME280_humidity;BME280_pressure;Samples;Min_cycle;Max_cycle;Signal;HPM_P1;HPM_P2
2023/09/16 00:00:14;;;;;;;11.73;10.10;;;;;;;17.15;66.96;100879.13;680242;29;1208;-93
2023/09/16 00:00:35;;;;;;;12.77;10.27;;;;;;;17.09;66.81;100869.47;675037;29;1143;-93
2023/09/16 00:00:55;;;;;;;12.25;9.93;;;;;;;17.14;66.90;100877.38;677848;29;1191;-92
2023/09/16 00:01:16;;;;;;;14.35;10.05;;;;;;;17.11;66.74;100874.75;677688;29;1150;-92
2023/09/16 00:01:37;;;;;;;13.43;9.90;;;;;;;17.09;66.86;100872.09;675372;29;1247;-93
2023/09/16 00:01:58;;;;;;;12.80;9.73;;;;;;;17.10;66.87;100868.56;677646;29;1391;-93
2023/09/16 00:02:20;;;;;;;11.02;9.65;;;;;;;17.09;66.95;100872.09;677701;29;1265;-92
2023/09/16 00:02:41;;;;;;;11.43;9.85;;;;;;;17.05;66.74;100867.72;672498;29;1282;-92
2023/09/16 00:03:03;;;;;;;12.85;10.05;;;;;;;17.06;67.24;100872.09;675117;29;1404;-92
2023/09/16 00:03:25;;;;;;;12.55;9.95;;;;;;;17.14;66.97;100882.66;675198;29;1389;-93
2023/09/16 00:03:46;;;;;;;11.80;9.80;;;;;;;17.06;67.06;100865.94;680240;29;1376;-93
2023/09/16 00:04:09;;;;;;;11.25;10.05;;;;;;;17.13;67.00;100879.16;680160;29;1353;-93
2023/09/16 00:04:30;;;;;;;11.50;10.30;;;;;;;17.14;66.70;100877.38;680326;29;1377;-92
2023/09/16 00:04:51;;;;;;;14.37;11.10;;;;;;;17.15;66.98;100873.84;680360;29;1391;-93
2023/09/16 00:05:12;;;;;;;14.40;10.60;;;;;;;17.06;66.88;100864.19;677582;29;1210;-93
2023/09/16 00:05:34;;;;;;;15.10;10.30;;;;;;;17.08;66.83;100861.56;674990;29;1318;-93
2023/09/16 00:05:56;;;;;;;12.15;9.25;;;;;;;17.15;66.98;100878.28;675229;29;1143;-93
2023/09/16 00:06:17;;;;;;;11.98;9.43;;;;;;;17.11;66.85;100874.75;680238;29;1240;-93
2023/09/16 00:06:37;;;;;;;10.25;8.88;;;;;;;17.16;66.88;100887.94;675081;29;1249;-92
2023/09/16 00:06:59;;;;;;;11.73;9.20;;;;;;;17.08;66.94;100867.69;680537;29;1146;-94
2023/09/16 00:07:21;;;;;;;12.35;9.18;;;;;;;17.12;66.89;100868.59;680469;29;1187;-93
2023/09/16 00:07:42;;;;;;;11.85;9.02;;;;;;;17.13;66.86;100878.25;674343;29;1258;-93
2023/09/16 00:08:02;;;;;;;10.00;8.83;;;;;;;17.13;66.66;100883.53;680223;29;1237;-92
2023/09/16 00:08:23;;;;;;;10.00;9.00;;;;;;;17.11;66.99;100874.75;676974;29;1211;-93
2023/09/16 00:08:44;;;;;;;10.35;9.35;;;;;;;17.11;66.71;100877.38;677648;29;1147;-92
2023/09/16 00:09:04;;;;;;;10.93;9.40;;;;;;;17.11;66.85;100875.59;683022;29;1198;-93
2023/09/16 00:09:25;;;;;;;11.20;9.03;;;;;;;17.09;66.79;100866.81;685764;28;1259;-93
2023/09/16 00:09:47;;;;;;;13.27;9.00;;;;;;;17.11;66.83;100874.75;680332;29;1187;-93
2023/09/16 00:10:08;;;;;;;11.98;8.95;;;;;;;17.11;66.83;100872.09;677778;29;1275;-93
2023/09/16 00:10:28;;;;;;;13.32;9.48;;;;;;;17.10;66.90;100876.50;674858;29;1310;-94
2023/09/16 00:10:49;;;;;;;11.73;9.47;;;;;;;17.13;66.77;100875.63;682614;29;1218;-92
2023/09/16 00:11:10;;;;;;;11.90;9.60;;;;;;;17.06;66.65;100863.28;679662;29;1170;-93
2023/09/16 00:11:30;;;;;;;11.40;9.50;;;;;;;17.10;66.67;100878.25;680389;29;1263;-92
2023/09/16 00:11:51;;;;;;;10.85;9.10;;;;;;;17.12;66.77;100873.88;675147;29;1330;-92
2023/09/16 00:12:13;;;;;;;10.43;9.30;;;;;;;17.12;66.78;100874.75;676891;29;1227;-92
2023/09/16 00:12:33;;;;;;;10.60;9.50;;;;;;;17.10;66.76;100867.72;682893;28;1342;-92
2023/09/16 00:12:54;;;;;;;10.63;9.63;;;;;;;17.11;66.76;100870.34;677701;29;1924;-92
2023/09/16 00:13:15;;;;;;;13.20;9.60;;;;;;;17.13;66.89;100878.25;680257;29;1259;-93
2023/09/16 00:13:36;;;;;;;14.73;9.95;;;;;;;17.10;66.76;100873.00;677667;29;1241;-92
2023/09/16 00:13:57;;;;;;;16.23;10.00;;;;;;;17.14;66.81;100880.00;685722;28;1319;-92
2023/09/16 00:14:18;;;;;;;13.17;10.10;;;;;;;17.12;66.80;100873.88;685510;28;1197;-92
2023/09/16 00:14:39;;;;;;;12.90;10.02;;;;;;;17.02;66.79;100858.91;679876;29;1365;-93
2023/09/16 00:15:00;;;;;;;12.82;10.05;;;;;;;17.12;66.82;100877.41;677976;29;1285;-92
2023/09/16 00:15:21;;;;;;;13.75;10.10;;;;;;;17.07;66.69;100862.41;683044;28;1184;-92
2023/09/16 00:15:48;;;;;;;13.00;10.43;;;;;;;17.08;66.88;100866.84;680057;29;1249;-92
2023/09/16 00:16:12;;;;;;;11.73;10.45;;;;;;;17.12;66.84;100871.22;680164;29;1304;-93
2023/09/16 00:16:32;;;;;;;11.10;10.00;;;;;;;17.11;66.86;100872.09;677648;29;1271;-93
2023/09/16 00:19:36;;;;;;;10.00;9.00;;;;;;;17.13;66.66;100875.63;683402;28;1132;-93
2023/09/16 00:20:16;;;;;;;10.38;9.00;;;;;;;17.06;66.79;100873.84;683109;29;702;-92
2023/09/16 00:20:55;;;;;;;11.07;8.98;;;;;;;17.05;66.76;100869.44;680583;29;720;-92
2023/09/16 00:21:22;;;;;;;10.50;9.40;;;;;;;17.01;66.59;100862.44;680449;29;1261;-92
2023/09/16 00:21:45;;;;;;;10.55;9.45;;;;;;;17.07;66.77;100867.69;677579;29;1227;-93
2023/09/16 00:22:10;;;;;;;13.38;9.75;;;;;;;17.07;66.92;100879.13;682912;29;1212;-93
2023/09/16 00:22:30;;;;;;;20.02;10.07;;;;;;;17.04;66.69;100867.69;680024;29;1327;-93
2023/09/16 00:22:51;;;;;;;20.38;10.80;;;;;;;17.03;66.95;100860.66;675235;29;1280;-93
2023/09/16 00:23:13;;;;;;;18.53;10.70;;;;;;;17.08;66.83;100872.13;677733;29;1280;-94
2023/09/16 00:23:34;;;;;;;17.77;10.63;;;;;;;16.96;66.79;100855.38;682964;29;1143;-94
2023/09/16 00:23:55;;;;;;;18.20;9.80;;;;;;;17.04;66.78;100863.31;680424;29;1318;-94
2023/09/16 00:24:16;;;;;;;19.07;9.90;;;;;;;17.09;66.79;100871.22;679906;29;1214;-93
2023/09/16 00:24:37;;;;;;;13.90;9.98;;;;;;;17.03;66.62;100860.66;680140;29;1403;-93
2023/09/16 00:24:58;;;;;;;13.45;10.05;;;;;;;17.06;66.70;100863.28;675186;29;1270;-94
2023/09/16 00:25:19;;;;;;;12.35;10.15;;;;;;;16.98;66.47;100850.97;683022;29;1410;-95
2023/09/16 00:25:40;;;;;;;13.25;9.68;;;;;;;17.07;66.52;100862.41;680289;29;1299;-92
2023/09/16 00:26:00;;;;;;;12.90;9.43;;;;;;;17.06;66.67;100866.81;674624;29;1252;-92
2023/09/16 00:26:21;;;;;;;11.90;9.05;;;;;;;17.06;66.64;100868.56;680406;29;1245;-92
2023/09/16 00:26:42;;;;;;;10.68;9.57;;;;;;;17.03;66.57;100860.66;680112;29;1355;-92
2023/09/16 00:27:04;;;;;;;10.65;9.40;;;;;;;17.01;66.57;100859.78;674993;29;1349;-93
2023/09/16 00:27:26;;;;;;;10.73;9.63;;;;;;;17.05;66.66;100869.44;675071;29;1202;-93
2023/09/16 00:27:47;;;;;;;10.63;9.52;;;;;;;17.01;66.63;100868.56;680243;29;1220;-93
2023/09/16 00:28:08;;;;;;;11.10;9.85;;;;;;;17.04;66.63;100867.69;680263;29;1195;-93
2023/09/16 00:28:30;;;;;;;11.35;9.75;;;;;;;17.04;66.84;100863.31;677714;29;1276;-93
2023/09/16 00:28:51;;;;;;;10.68;9.57;;;;;;;17.04;66.83;100872.97;680239;29;1245;-92
2023/09/16 00:29:12;;;;;;;10.70;9.60;;;;;;;17.07;66.98;100873.84;675557;29;1208;-91
2023/09/16 00:29:33;;;;;;;11.90;10.38;;;;;;;16.99;66.99;100860.63;679990;29;1378;-92
2023/09/16 00:29:54;;;;;;;12.40;10.70;;;;;;;17.04;66.72;100867.69;677207;29;1391;-92
2023/09/16 00:30:15;;;;;;;11.90;10.70;;;;;;;17.05;66.68;100864.19;677278;29;1394;-92
2023/09/16 00:30:36;;;;;;;12.15;10.48;;;;;;;16.99;66.76;100865.91;682653;29;1477;-91
2023/09/16 00:31:01;;;;;;;13.23;10.60;;;;;;;17.05;66.77;100867.72;677377;29;1238;-92
2023/09/16 00:31:21;;;;;;;12.00;9.95;;;;;;;17.05;66.71;100872.09;674610;29;1530;-92
2023/09/16 00:31:42;;;;;;;12.23;9.53;;;;;;;17.05;66.58;100858.91;677505;29;1157;-92
2023/09/16 00:32:06;;;;;;;11.83;9.57;;;;;;;17.02;66.93;100858.91;680066;29;1237;-91
2023/09/16 00:32:28;;;;;;;11.02;9.75;;;;;;;17.05;66.77;100864.19;674936;29;1385;-92
2023/09/16 00:32:48;;;;;;;11.57;9.90;;;;;;;17.05;66.63;100864.19;677022;29;1899;-92
2023/09/16 00:33:09;;;;;;;13.10;10.15;;;;;;;17.03;66.92;100861.53;680112;29;1191;-92
2023/09/16 00:33:31;;;;;;;13.50;10.50;;;;;;;17.08;66.79;100874.75;675029;29;1173;-93
2023/09/16 00:33:53;;;;;;;12.65;10.32;;;;;;;17.04;66.70;100865.06;677772;29;847;-93
2023/09/16 00:34:13;;;;;;;11.15;9.95;;;;;;;17.01;66.93;100858.00;680269;29;1222;-93
2023/09/16 00:34:34;;;;;;;11.25;9.25;;;;;;;17.06;66.80;100868.56;680249;29;1223;-93
2023/09/16 00:34:55;;;;;;;11.73;9.10;;;;;;;17.03;66.83;100865.94;680346;29;1389;-92
2023/09/16 00:35:18;;;;;;;11.88;9.00;;;;;;;17.06;66.75;100868.56;682866;29;1207;-92
2023/09/16 00:35:39;;;;;;;10.50;9.05;;;;;;;17.02;66.86;100861.53;680278;28;1396;-93
2023/09/16 00:36:00;;;;;;;10.48;8.73;;;;;;;17.05;66.73;100874.72;680422;29;1143;-93
2023/09/16 00:36:20;;;;;;;13.10;9.20;;;;;;;17.04;66.70;100867.69;675058;29;1291;-93
2023/09/16 00:36:41;;;;;;;14.35;9.77;;;;;;;17.02;66.74;100864.19;675034;29;1191;-93
2023/09/16 00:37:03;;;;;;;14.70;9.80;;;;;;;17.01;66.73;100867.69;677673;29;1209;-93
2023/09/16 00:37:23;;;;;;;11.25;10.00;;;;;;;17.03;66.69;100873.84;680412;29;1178;-93
2023/09/16 00:37:44;;;;;;;10.88;9.60;;;;;;;17.01;66.83;100878.25;680115;29;1228;-93
2023/09/16 00:38:05;;;;;;;12.20;10.02;;;;;;;17.07;66.88;100880.88;677218;29;1183;-93
2023/09/16 00:38:26;;;;;;;12.00;9.32;;;;;;;16.99;66.86;100871.19;680058;29;1213;-92
2023/09/16 00:38:46;;;;;;;12.20;9.73;;;;;;;17.02;66.85;100872.94;677728;29;1126;-92
2023/09/16 00:39:07;;;;;;;11.32;9.40;;;;;;;16.98;66.65;100868.56;679538;29;1257;-93
2023/09/16 00:39:28;;;;;;;11.88;9.70;;;;;;;16.99;66.67;100870.31;682796;29;1166;-92
2023/09/16 00:39:48;;;;;;;11.90;9.77;;;;;;;16.94;66.81;100857.13;672600;29;1368;-93
2023/09/16 00:40:10;;;;;;;11.32;10.13;;;;;;;17.05;66.79;100877.34;669841;29;1190;-92
2023/09/16 00:40:31;;;;;;;10.73;9.63;;;;;;;16.95;66.72;100861.53;674883;29;1280;-93
2023/09/16 00:40:52;;;;;;;10.20;9.20;;;;;;;16.98;66.70;100868.56;680353;29;1203;-92
2023/09/16 00:41:13;;;;;;;9.88;8.88;;;;;;;17.05;66.81;100877.34;684555;28;1270;-92
2023/09/16 00:41:34;;;;;;;10.32;9.20;;;;;;;17.04;66.80;100879.13;680726;29;1277;-93
2023/09/16 00:41:55;;;;;;;15.52;9.88;;;;;;;17.04;66.47;100878.25;678187;29;1319;-93
2023/09/16 00:42:16;;;;;;;15.83;9.83;;;;;;;16.96;66.66;100859.78;677984;29;1177;-92
2023/09/16 00:42:38;;;;;;;15.73;9.80;;;;;;;17.00;66.45;100866.81;680694;29;1461;-92
2023/09/16 00:42:59;;;;;;;15.30;9.90;;;;;;;17.06;66.80;100877.38;683670;29;1467;-93
2023/09/16 00:43:19;;;;;;;15.38;10.10;;;;;;;17.04;66.47;100871.22;680686;29;1197;-93
2023/09/16 00:43:40;;;;;;;13.00;9.98;;;;;;;17.04;66.83;100873.84;677727;29;1367;-92
2023/09/16 00:44:01;;;;;;;12.05;9.90;;;;;;;17.08;66.78;100874.75;680842;29;1216;-93
2023/09/16 00:44:22;;;;;;;12.13;9.80;;;;;;;17.06;66.71;100871.22;678176;29;1180;-93
2023/09/16 00:44:44;;;;;;;10.68;9.57;;;;;;;17.07;66.76;100867.69;677382;29;1312;-93
2023/09/16 00:45:06;;;;;;;10.70;9.32;;;;;;;17.12;66.66;100876.50;678104;29;1221;-93
2023/09/16 00:45:27;;;;;;;9.88;8.88;;;;;;;17.09;66.63;100872.09;680565;29;1329;-93
2023/09/16 00:45:48;;;;;;;10.20;9.00;;;;;;;17.11;66.98;100872.09;680813;29;1324;-92
2023/09/16 00:46:09;;;;;;;11.50;9.52;;;;;;;17.10;66.46;100873.84;680306;29;1171;-91
2023/09/16 00:46:30;;;;;;;13.48;9.70;;;;;;;17.10;66.73;100868.56;678100;29;1214;-93
2023/09/16 00:46:50;;;;;;;13.13;9.70;;;;;;;17.12;66.58;100871.22;678415;29;745;-93
2023/09/16 00:47:11;;;;;;;13.17;9.60;;;;;;;17.16;66.68;100875.66;680689;29;1266;-92
2023/09/16 00:47:35;;;;;;;11.90;9.48;;;;;;;17.14;66.63;100869.47;683351;28;1326;-93
2023/09/16 00:47:57;;;;;;;10.93;8.95;;;;;;;17.18;66.54;100873.88;681053;29;1278;-92
2023/09/16 00:48:18;;;;;;;10.70;8.88;;;;;;;17.16;66.48;100865.09;680628;29;1250;-92
2023/09/16 00:48:40;;;;;;;9.70;8.70;;;;;;;17.18;66.66;100873.88;675446;29;1366;-93
2023/09/16 00:49:01;;;;;;;10.27;8.75;;;;;;;17.22;66.82;100873.03;678030;29;1249;-93
2023/09/16 00:49:23;;;;;;;10.45;8.70;;;;;;;17.25;66.56;100878.34;678251;29;1207;-92
2023/09/16 00:49:44;;;;;;;10.75;9.00;;;;;;;17.29;66.59;100883.59;675188;29;1216;-92
2023/09/16 00:50:05;;;;;;;9.75;8.75;;;;;;;17.29;66.54;100878.31;683221;29;1219;-92
2023/09/16 00:50:26;;;;;;;9.23;8.30;;;;;;;17.25;66.47;100873.06;678187;29;1280;-93
2023/09/16 00:50:47;;;;;;;9.10;8.20;;;;;;;17.28;66.38;100869.56;675366;29;1203;-92
2023/09/16 00:51:08;;;;;;;9.43;8.48;;;;;;;17.29;66.54;100871.31;678047;29;1167;-92
2023/09/16 00:51:28;;;;;;;9.50;8.60;;;;;;;17.30;66.42;100872.16;678124;29;1299;-93
2023/09/16 00:51:49;;;;;;;9.33;8.43;;;;;;;17.33;66.72;100869.56;678119;29;1303;-93
2023/09/16 00:52:10;;;;;;;9.13;8.20;;;;;;;17.35;66.59;100870.44;672664;29;1294;-92
2023/09/16 00:52:32;;;;;;;10.48;8.50;;;;;;;17.33;66.56;100870.41;678083;29;1247;-92
2023/09/16 00:52:59;;;;;;;10.23;8.45;;;;;;;17.34;66.47;100871.31;677476;29;1895;-92
2023/09/16 00:53:20;;;;;;;9.65;8.63;;;;;;;17.31;66.51;100860.72;678024;29;1210;-92
2023/09/16 00:53:43;;;;;;;10.82;8.85;;;;;;;17.34;66.32;100863.41;680655;29;1189;-91
2023/09/16 00:54:04;;;;;;;10.68;9.00;;;;;;;17.35;66.44;100863.41;678077;29;1359;-92
2023/09/16 00:54:25;;;;;;;10.68;9.35;;;;;;;17.35;66.39;100862.50;677613;29;1193;-92
2023/09/16 00:54:50;;;;;;;10.38;9.27;;;;;;;17.32;66.32;100858.09;678119;29;1413;-92
2023/09/16 00:55:11;;;;;;;9.75;8.75;;;;;;;17.40;66.20;100863.41;680765;29;1257;-93
2023/09/16 00:55:32;;;;;;;9.10;8.20;;;;;;;17.36;66.21;100859.88;680784;29;1290;-92
2023/09/16 00:55:53;;;;;;;10.38;8.40;;;;;;;17.40;66.42;100866.06;683310;29;1229;-93
2023/09/16 00:56:14;;;;;;;10.68;8.45;;;;;;;17.38;66.22;100860.75;677728;29;1168;-93
2023/09/16 00:56:35;;;;;;;11.53;8.90;;;;;;;17.38;66.35;100868.69;678010;29;1190;-92
2023/09/16 00:56:58;;;;;;;9.68;8.68;;;;;;;17.36;66.38;100861.63;678141;29;1518;-93
2023/09/16 00:57:18;;;;;;;10.13;8.77;;;;;;;17.41;66.31;100867.81;678027;29;1300;-93
2023/09/16 00:57:42;;;;;;;9.57;8.52;;;;;;;17.43;66.32;100865.16;678114;29;1268;-92
2023/09/16 00:58:03;;;;;;;9.80;8.48;;;;;;;17.35;66.15;100857.25;680731;29;1251;-92
2023/09/16 00:58:24;;;;;;;9.10;8.20;;;;;;;17.39;66.22;100858.97;683359;29;1264;-92
2023/09/16 00:58:45;;;;;;;9.20;8.30;;;;;;;17.38;66.35;100860.75;683672;28;1259;-93
2023/09/16 00:59:06;;;;;;;9.90;8.90;;;;;;;17.42;66.18;100866.03;677983;29;1361;-92
2023/09/16 00:59:28;;;;;;;10.60;9.32;;;;;;;17.43;66.35;100860.75;683010;29;1318;-92
2023/09/16 00:59:49;;;;;;;11.38;9.50;;;;;;;17.47;66.26;100865.19;683494;29;1297;-92
2023/09/16 01:00:10;;;;;;;10.57;9.10;;;;;;;17.45;66.24;100866.91;680227;29;1238;-93
2023/09/16 01:00:32;;;;;;;10.23;8.50;;;;;;;17.43;66.37;100850.22;675455;29;1218;-92
2023/09/16 01:00:53;;;;;;;8.85;7.93;;;;;;;17.49;66.31;100868.69;677899;29;1292;-92
2023/09/16 01:01:15;;;;;;;10.02;8.32;;;;;;;17.43;66.22;100850.22;677918;29;1226;-93
2023/09/16 01:01:37;;;;;;;10.65;8.40;;;;;;;17.49;66.26;100859.88;680311;29;1555;-92
2023/09/16 01:01:59;;;;;;;10.48;8.75;;;;;;;17.51;66.20;100866.94;678234;29;1362;-93
2023/09/16 01:02:21;;;;;;;11.32;8.80;;;;;;;17.48;66.15;100864.28;677910;29;1161;-92
2023/09/16 01:02:41;;;;;;;10.80;8.80;;;;;;;17.46;66.00;100860.75;675444;29;1288;-93
2023/09/16 01:03:04;;;;;;;11.05;8.63;;;;;;;17.53;66.12;100867.78;683185;29;1307;-92
2023/09/16 01:03:26;;;;;;;9.40;8.40;;;;;;;17.50;66.04;100865.16;678317;29;1194;-93
2023/09/16 01:03:47;;;;;;;9.63;8.40;;;;;;;17.56;66.08;100876.63;677964;29;1222;-92
2023/09/16 01:04:08;;;;;;;9.57;8.57;;;;;;;17.48;65.82;100845.81;680575;29;1221;-93
2023/09/16 01:04:30;;;;;;;9.95;8.50;;;;;;;17.51;65.98;100851.09;677575;29;1298;-93
2023/09/16 01:04:51;;;;;;;9.63;8.02;;;;;;;17.56;65.85;100860.78;677769;29;1291;-93
2023/09/16 01:05:15;;;;;;;8.97;7.50;;;;;;;17.58;65.77;100864.28;672462;29;1248;-92
2023/09/16 01:05:36;;;;;;;8.60;7.70;;;;;;;17.59;65.91;100860.78;673889;29;1299;-92
2023/09/16 01:05:59;;;;;;;8.90;8.00;;;;;;;17.56;66.08;100852.88;675497;29;1206;-92
2023/09/16 01:06:20;;;;;;;8.85;7.80;;;;;;;17.62;65.95;100866.03;680347;29;1350;-92
2023/09/16 01:06:43;;;;;;;8.55;7.65;;;;;;;17.63;65.76;100862.50;679654;29;1336;-93
2023/09/16 01:07:05;;;;;;;8.77;7.80;;;;;;;17.65;65.74;100866.91;675400;29;1263;-93
2023/09/16 01:07:27;;;;;;;8.70;7.65;;;;;;;17.63;65.58;100858.13;678127;29;1348;-92
2023/09/16 01:07:49;;;;;;;9.57;7.70;;;;;;;17.63;65.71;100862.50;675475;29;1234;-92
2023/09/16 01:08:11;;;;;;;10.43;7.65;;;;;;;17.65;65.65;100858.13;675432;29;1311;-92
2023/09/16 01:08:34;;;;;;;10.80;7.95;;;;;;;17.68;65.64;100863.41;672798;29;1280;-93
2023/09/16 01:08:55;;;;;;;11.75;8.60;;;;;;;17.70;65.71;100860.78;675641;29;1330;-93
2023/09/16 01:09:17;;;;;;;13.40;8.70;;;;;;;17.69;65.77;100857.25;677953;29;1358;-92
2023/09/16 01:09:39;;;;;;;11.80;8.15;;;;;;;17.70;65.49;100864.28;678168;29;1239;-93
2023/09/16 01:10:00;;;;;;;10.20;7.55;;;;;;;17.75;65.55;100864.28;678155;29;1179;-92
2023/09/16 01:10:22;;;;;;;8.13;7.32;;;;;;;17.70;65.65;100856.34;680726;29;1278;-93
2023/09/16 01:10:42;;;;;;;8.70;7.57;;;;;;;17.75;65.63;100866.91;677868;29;1421;-92
2023/09/16 01:11:06;;;;;;;9.77;8.35;;;;;;;17.76;65.83;100860.78;678058;29;1150;-92
2023/09/16 01:11:27;;;;;;;9.85;8.32;;;;;;;17.75;65.69;100859.88;680212;29;1262;-92
2023/09/16 01:11:48;;;;;;;9.40;8.27;;;;;;;17.73;65.59;100851.09;675583;29;987;-92
2023/09/16 01:12:08;;;;;;;9.73;8.27;;;;;;;17.83;65.60;100861.66;675345;29;1271;-94
2023/09/16 01:12:29;;;;;;;11.13;8.47;;;;;;;17.76;65.59;100850.22;680619;29;1256;-93
2023/09/16 01:12:54;;;;;;;10.52;8.15;;;;;;;17.83;65.62;100861.66;677739;29;1916;-92
2023/09/16 01:13:15;;;;;;;9.70;7.82;;;;;;;17.80;65.35;100854.59;675410;29;1405;-92
2023/09/16 01:13:37;;;;;;;8.10;7.30;;;;;;;17.78;65.56;100845.81;675411;29;1240;-92
2023/09/16 01:13:58;;;;;;;8.70;7.80;;;;;;;17.85;65.51;100859.88;675461;29;1385;-91
2023/09/16 01:14:18;;;;;;;8.63;7.75;;;;;;;17.87;65.38;100864.28;675401;29;1191;-93
2023/09/16 01:14:39;;;;;;;9.30;8.00;;;;;;;17.88;65.30;100859.91;672758;29;1379;-92
2023/09/16 01:15:00;;;;;;;9.57;7.67;;;;;;;17.87;65.39;100860.75;675480;29;1156;-92
2023/09/16 01:15:22;;;;;;;10.73;7.80;;;;;;;17.88;65.19;100855.47;675387;29;1171;-93
2023/09/16 01:15:52;;;;;;;10.30;7.90;;;;;;;17.87;65.27;100853.72;674189;29;1361;-93
2023/09/16 01:16:34;;;;;;;10.40;8.10;;;;;;;17.95;65.18;100861.66;680456;29;1380;-93
2023/09/16 01:17:06;;;;;;;8.55;7.65;;;;;;;17.89;65.18;100853.72;678145;29;1203;-93
2023/09/16 01:17:33;;;;;;;7.90;7.15;;;;;;;17.91;65.19;100857.25;675467;29;1179;-93
2023/09/16 01:18:10;;;;;;;8.00;7.20;;;;;;;17.91;65.13;100854.59;673067;29;1295;-92
2023/09/16 01:18:38;;;;;;;8.05;7.25;;;;;;;17.84;65.18;100837.91;677614;29;1283;-92
2023/09/16 01:19:09;;;;;;;7.75;6.95;;;;;;;17.86;65.12;100845.78;682475;29;1316;-93
2023/09/16 01:19:44;;;;;;;8.05;7.25;;;;;;;17.90;65.01;100845.78;680571;29;1260;-92
2023/09/16 01:20:08;;;;;;;8.57;7.68;;;;;;;17.82;64.94;100842.28;675422;29;1276;-92
2023/09/16 01:20:29;;;;;;;9.68;7.75;;;;;;;17.87;65.21;100850.19;672728;29;1431;-92
2023/09/16 01:20:51;;;;;;;10.48;7.60;;;;;;;17.84;65.03;100847.56;673215;29;1233;-92
2023/09/16 01:21:13;;;;;;;10.68;7.93;;;;;;;17.83;65.16;100854.63;680658;29;1349;-93
2023/09/16 01:21:34;;;;;;;11.13;7.70;;;;;;;17.83;65.24;100845.81;680234;29;1237;-92
2023/09/16 01:21:56;;;;;;;10.52;7.90;;;;;;;17.83;65.18;100848.44;678273;29;1278;-92
2023/09/16 01:22:17;;;;;;;9.18;7.07;;;;;;;17.75;65.20;100836.13;677908;29;1408;-92
2023/09/16 01:22:44;;;;;;;10.73;7.50;;;;;;;17.79;64.94;100845.81;677822;29;1314;-92
2023/09/16 01:23:06;;;;;;;11.75;7.95;;;;;;;17.77;65.27;100839.66;678015;29;1444;-92
2023/09/16 01:23:27;;;;;;;13.13;8.48;;;;;;;17.78;65.14;100845.81;680830;29;1372;-93
2023/09/16 01:23:48;;;;;;;11.18;8.43;;;;;;;17.79;65.07;100847.56;678083;29;1142;-92
2023/09/16 01:24:19;;;;;;;10.05;8.20;;;;;;;17.66;65.15;100831.72;680525;29;1254;-92
2023/09/16 01:24:40;;;;;;;13.70;8.50;;;;;;;17.68;65.16;100835.28;680494;29;1207;-92
2023/09/16 01:25:07;;;;;;;14.63;7.85;;;;;;;17.68;65.08;100842.28;680835;29;1305;-93
2023/09/16 01:25:29;;;;;;;9.60;7.10;;;;;;;17.64;65.24;100837.91;675532;29;1381;-93
2023/09/16 01:25:50;;;;;;;8.13;6.85;;;;;;;17.62;65.33;100844.94;675556;29;1292;-92
2023/09/16 01:26:11;;;;;;;8.33;7.20;;;;;;;17.61;65.30;100832.63;675280;29;1206;-93
2023/09/16 01:26:32;;;;;;;9.38;7.78;;;;;;;17.63;65.27;100841.41;675415;29;1215;-92
2023/09/16 01:26:53;;;;;;;10.10;8.07;;;;;;;17.59;65.20;100835.28;678002;29;1564;-93
2023/09/16 01:27:13;;;;;;;11.88;8.45;;;;;;;17.60;65.37;100844.06;679856;29;1315;-92
2023/09/16 01:27:34;;;;;;;11.00;8.60;;;;;;;17.62;65.41;100848.47;680562;29;1085;-92
2023/09/16 01:27:55;;;;;;;9.60;8.30;;;;;;;17.65;65.25;100855.50;680772;29;1160;-93
2023/09/16 01:28:16;;;;;;;8.35;7.55;;;;;;;17.56;65.20;100840.53;676344;29;1399;-92
2023/09/16 01:28:37;;;;;;;7.93;6.95;;;;;;;17.52;65.31;100830.88;677914;29;1237;-93
2023/09/16 01:28:58;;;;;;;8.25;7.05;;;;;;;17.58;65.46;100845.81;675598;29;1440;-92
2023/09/16 01:29:20;;;;;;;9.18;7.45;;;;;;;17.60;65.45;100847.59;680305;29;1253;-92
2023/09/16 01:29:41;;;;;;;8.60;7.28;;;;;;;17.55;65.49;100846.69;680639;29;1283;-92
2023/09/16 01:30:02;;;;;;;8.50;7.05;;;;;;;17.56;65.21;100844.94;678267;29;1062;-92
2023/09/16 01:30:27;;;;;;;7.68;6.65;;;;;;;17.53;65.42;100836.13;675464;29;1218;-91
2023/09/16 01:30:50;;;;;;;8.20;6.93;;;;;;;17.53;65.30;100844.06;680626;29;1358;-92
2023/09/16 01:31:11;;;;;;;7.50;6.63;;;;;;;17.48;65.30;100837.91;678028;29;1288;-92
2023/09/16 01:31:32;;;;;;;7.65;6.60;;;;;;;17.55;65.33;100854.63;677127;29;1372;-93
2023/09/16 01:31:59;;;;;;;8.80;6.80;;;;;;;17.47;65.23;100836.16;678148;29;1239;-93
2023/09/16 01:32:25;;;;;;;9.60;7.30;;;;;;;17.44;65.32;100832.63;680523;29;1216;-92
2023/09/16 01:33:05;;;;;;;10.57;7.70;;;;;;;17.52;65.28;100850.22;682812;29;1270;-92
2023/09/16 01:33:34;;;;;;;10.13;7.68;;;;;;;17.42;65.39;100837.00;677168;29;1357;-93
2023/09/16 01:33:57;;;;;;;9.70;8.07;;;;;;;17.40;65.26;100837.03;680753;29;1347;-92
2023/09/16 01:34:39;;;;;;;9.32;8.30;;;;;;;17.38;65.45;100830.84;679846;29;1447;-93
2023/09/16 01:35:06;;;;;;;10.35;8.15;;;;;;;17.36;65.36;100828.22;678091;29;1210;-93
2023/09/16 01:35:32;;;;;;;9.15;8.02;;;;;;;17.45;65.46;100844.94;678023;29;1334;-92
2023/09/16 01:36:00;;;;;;;10.40;8.02;;;;;;;17.42;65.37;100840.53;683386;28;1438;-93
2023/09/16 01:36:26;;;;;;;10.45;8.40;;;;;;;17.42;65.43;100837.91;680612;29;1298;-93
2023/09/16 01:36:49;;;;;;;9.13;8.00;;;;;;;17.35;65.40;100828.22;680663;29;1499;-93
2023/09/16 01:37:15;;;;;;;8.85;7.70;;;;;;;17.42;65.40;100848.47;680752;28;1309;-93
2023/09/16 01:37:38;;;;;;;8.93;7.30;;;;;;;17.40;65.27;100834.41;685856;28;1338;-92
2023/09/16 01:37:59;;;;;;;9.00;7.53;;;;;;;17.38;65.36;100839.66;678068;29;1260;-91
2023/09/16 01:38:22;;;;;;;8.10;7.30;;;;;;;17.41;65.26;100841.44;680317;29;1228;-92
2023/09/16 01:38:47;;;;;;;8.68;7.55;;;;;;;17.41;65.34;100846.69;677574;29;1369;-92
2023/09/16 01:39:08;;;;;;;8.98;7.40;;;;;;;17.39;65.19;100838.78;680061;29;1258;-93
2023/09/16 01:39:30;;;;;;;9.60;7.80;;;;;;;17.40;65.48;100840.53;678151;29;1425;-92
2023/09/16 01:39:59;;;;;;;9.00;7.78;;;;;;;17.44;65.25;100846.69;680519;29;1222;-92
2023/09/16 01:40:23;;;;;;;8.48;7.57;;;;;;;17.42;65.49;100845.81;680418;29;1288;-92
2023/09/16 01:40:44;;;;;;;8.70;7.80;;;;;;;17.44;65.50;100846.69;677952;29;1423;-92
2023/09/16 01:41:07;;;;;;;8.65;7.75;;;;;;;17.44;65.48;100840.56;677943;29;1349;-91
2023/09/16 01:41:29;;;;;;;8.65;7.53;;;;;;;17.47;65.18;100849.34;680547;29;1466;-93
2023/09/16 01:41:52;;;;;;;8.85;7.40;;;;;;;17.50;65.47;100846.69;683314;29;1276;-92
2023/09/16 01:42:14;;;;;;;8.93;7.75;;;;;;;17.47;65.31;100845.81;675180;29;1347;-92
2023/09/16 01:42:35;;;;;;;9.05;7.95;;;;;;;17.48;65.19;100848.47;675273;29;1194;-92
2023/09/16 01:42:58;;;;;;;11.48;8.27;;;;;;;17.52;65.11;100852.84;675625;29;1341;-92
2023/09/16 01:43:20;;;;;;;11.65;8.13;;;;;;;17.52;65.29;100855.50;680467;29;1303;-92
2023/09/16 01:43:41;;;;;;;10.60;7.68;;;;;;;17.54;65.20;100851.09;675342;29;1198;-92
2023/09/16 01:44:02;;;;;;;8.68;7.75;;;;;;;17.54;65.21;100848.44;680603;29;1247;-93
2023/09/16 01:44:24;;;;;;;9.30;7.95;;;;;;;17.48;65.06;100837.91;677998;29;1318;-92
2023/09/16 01:44:45;;;;;;;10.05;7.78;;;;;;;17.53;65.29;100840.56;678523;29;1324;-92
2023/09/16 01:45:10;;;;;;;10.40;7.35;;;;;;;17.51;65.03;100839.66;680098;29;1255;-92
2023/09/16 01:45:41;;;;;;;12.02;7.90;;;;;;;17.60;65.24;100851.97;683213;29;1329;-92
2023/09/16 01:46:02;;;;;;;10.07;7.80;;;;;;;17.59;65.09;100852.84;683104;28;1320;-92
2023/09/16 01:46:24;;;;;;;9.18;7.93;;;;;;;17.58;65.03;100843.19;675392;29;1289;-92
2023/09/16 01:46:45;;;;;;;8.93;7.90;;;;;;;17.63;65.18;100855.50;678021;29;1193;-92
2023/09/16 01:47:07;;;;;;;9.38;8.27;;;;;;;17.67;64.94;100856.38;680509;29;1262;-93
2023/09/16 01:47:28;;;;;;;9.30;7.93;;;;;;;17.64;65.11;100851.97;675856;29;1261;-92
2023/09/16 01:47:49;;;;;;;9.27;7.88;;;;;;;17.68;65.18;100855.50;677819;29;1280;-92
2023/09/16 01:48:14;;;;;;;10.88;7.72;;;;;;;17.66;64.83;100847.56;677871;29;1214;-92
2023/09/16 01:48:35;;;;;;;11.13;7.35;;;;;;;17.67;64.91;100848.47;677934;29;1341;-93